Blue Hill, ME (04614)

8:40 PM EST on January 24, 2017 (GMT -0500)
The Quarry | | Change Station
Active Advisory: Small Craft Advisory Active Notice: Public Information Statement

Elev 0 ft 44.39 °N, 68.57 °W | Updated 103 days ago

Rain
Rain
61.5 °F
Feels Like 61.5 °F
N
0.0
Wind Variable Wind from South
Gusts 0.0 mph

Today
High -- | Low -- °F
--% Chance of Precip.
Yesterday
High -- | Low -- °F
Precip. -- in
Pressure 29.36 in
Visibility 5.0 miles
Clouds Overcast 1000 ft
Dew Point 60 °F
Humidity 94%
Rainfall 1.09 in
Snow Depth Not available.
7:00 AM 4:32 PM
Waning Crescent, 9% visible
METAR KBHB 250056Z AUTO 06018G27KT 5SM RA BR OVC010 03/02 A2935 RMK AO2 PK WND 06033/0035 SLP942 P0014 T00330017
Pressure 29.36 in
Visibility 5.0 miles
Clouds Overcast 1000 ft
Dew Point 60 °F
Humidity 94%
Rainfall 1.09 in
Snow Depth Not available.
7:00 AM 4:32 PM
Waning Crescent, 9% visible
METAR KBHB 250056Z AUTO 06018G27KT 5SM RA BR OVC010 03/02 A2935 RMK AO2 PK WND 06033/0035 SLP942 P0014 T00330017

Get Your Daily Forecast Email!

Thanks for signing up!

Be on the lookout for a verification email in your inbox.

You'll start receiving the daily forecast at 8 AM.

×

10-Day Weather Forecast

Almanac

Astronomy

Jan. 24, 2017 Rise Set
Actual Time
Civil Twilight
Nautical Twilight
Astronomical Twilight
Moon
Length of Visible Light
Length of Day
Tomorrow will be .
, % of the Moon is Illuminated

Today's Extremes

State Highs State Lows

Community

WunderPhotos

Upload Photos

1,962,540 photos uploaded!

WunderBlog® & News

Nearby

Air Quality

  Air Quality AQ Index Pollutant
Not available.

Snow Depth

Station Depth Elevation

Earthquake Activity

City Distance Mag. Time & Date
Minimum magnitude displayed is 2.5.

Coastal Water Temperatures

Place Temperature

Stations

Nearby Weather Stations

Station Location Temp. Windchill Dew Point Humidity Wind Precip. Elev Updated Type
                   

Watches & Warnings

Small Craft Advisory
Issued: 3:39 PM EST Jan. 24, 2017 – National Weather Service

... Small Craft Advisory remains in effect until 1 PM EST
Wednesday...

* winds and seas... northeast winds 15 to 25 kt with gusts up to
35 kt. Seas 5 to 8 feet.

Precautionary/preparedness actions...

A Small Craft Advisory means that wind speeds of 25 to 33 knots
are expected to produce hazardous wave conditions to small craft.
Inexperienced mariners... especially those operating smaller
vessels should avoid navigating in these conditions.